createdAt,value
2018-08-12T00:00:16.514Z,55.58
2018-08-12T00:02:45.758Z,55.67
2018-08-12T00:05:14.647Z,55.53
2018-08-12T00:07:43.549Z,55.22
2018-08-12T00:10:12.903Z,54.73
2018-08-12T00:12:42.106Z,55.04
2018-08-12T00:15:14.252Z,55.13
2018-08-12T00:17:43.377Z,55.74
2018-08-12T00:20:15.205Z,56.20
2018-08-12T00:22:44.454Z,56.31
2018-08-12T00:25:15.197Z,56.42
2018-08-12T00:27:43.981Z,56.89
2018-08-12T00:30:14.310Z,58.27
2018-08-12T00:32:43.312Z,59.06
2018-08-12T00:35:13.609Z,59.94
2018-08-12T00:37:42.621Z,60.20
2018-08-12T00:40:13.753Z,60.92
2018-08-12T00:42:42.755Z,59.83
2018-08-12T00:45:14.105Z,59.73
2018-08-12T00:47:43.067Z,60.17
2018-08-12T00:50:12.781Z,59.93
2018-08-12T00:52:41.832Z,60.09
2018-08-12T00:55:13.030Z,60.19
2018-08-12T00:57:43.485Z,60.20
2018-08-12T01:00:14.585Z,60.33
2018-08-12T01:02:43.270Z,60.05
2018-08-12T01:05:15.197Z,60.20
2018-08-12T01:07:46.105Z,60.09
2018-08-12T01:10:15.298Z,60.41
2018-08-12T01:12:44.123Z,60.56
2018-08-12T01:15:16.086Z,60.98
2018-08-12T01:17:45.342Z,61.52
2018-08-12T01:20:20.867Z,61.64
2018-08-12T01:22:49.731Z,61.54
2018-08-12T01:25:18.728Z,61.57
2018-08-12T01:27:47.692Z,60.89
2018-08-12T01:30:18.989Z,61.04
2018-08-12T01:32:48.961Z,60.96
2018-08-12T01:35:18.080Z,60.84
2018-08-12T01:37:47.839Z,60.95
2018-08-12T01:40:17.424Z,60.49
2018-08-12T01:42:46.653Z,60.75
2018-08-12T01:45:17.210Z,60.67
2018-08-12T01:47:46.881Z,60.80
2018-08-12T01:50:17.009Z,60.91
2018-08-12T01:52:46.029Z,61.42
2018-08-12T01:55:15.195Z,60.94
2018-08-12T01:57:44.019Z,61.10
2018-08-12T02:00:15.638Z,61.37
2018-08-12T02:02:44.957Z,61.89
2018-08-12T02:05:14.107Z,61.48
2018-08-12T02:07:43.344Z,61.53
2018-08-12T02:10:12.406Z,62.10
2018-08-12T02:12:41.441Z,62.32
2018-08-12T02:15:11.580Z,62.71
2018-08-12T02:17:40.885Z,62.53
2018-08-12T02:20:10.569Z,62.18
2018-08-12T02:22:40.117Z,62.38
2018-08-12T02:25:09.493Z,62.54
2018-08-12T02:27:38.327Z,62.33
2018-08-12T02:30:08.639Z,62.30
2018-08-12T02:32:37.503Z,62.84
2018-08-12T02:35:07.019Z,63.09
2018-08-12T02:37:35.808Z,63.34
2018-08-12T02:40:05.819Z,63.54
2018-08-12T02:42:34.817Z,63.86
2018-08-12T02:45:03.617Z,63.70
2018-08-12T02:47:32.396Z,64.09
2018-08-12T02:50:01.200Z,64.60
2018-08-12T02:52:29.956Z,64.28
2018-08-12T02:54:58.734Z,63.85
2018-08-12T02:57:27.601Z,64.13
2018-08-12T02:59:56.441Z,63.57
2018-08-12T03:02:25.225Z,63.25
2018-08-12T03:04:54.073Z,63.08
2018-08-12T03:07:22.766Z,63.31
2018-08-12T03:09:51.456Z,63.30
2018-08-12T03:12:20.318Z,63.72
2018-08-12T03:14:48.948Z,63.91
2018-08-12T03:17:17.709Z,64.50
2018-08-12T03:19:46.403Z,65.15
2018-08-12T03:22:15.193Z,65.50
2018-08-12T03:24:43.885Z,65.62
2018-08-12T03:27:12.707Z,65.98
2018-08-12T03:29:41.485Z,66.30
2018-08-12T03:32:10.242Z,66.52
2018-08-12T03:34:39.075Z,66.05
2018-08-12T03:37:08.063Z,66.16
2018-08-12T03:39:36.813Z,65.80
2018-08-12T03:42:05.972Z,65.50
2018-08-12T03:44:35.333Z,65.39
2018-08-12T03:47:04.073Z,65.20
2018-08-12T03:49:32.845Z,64.86
2018-08-12T03:52:01.686Z,64.67
2018-08-12T03:54:30.524Z,64.74
2018-08-12T03:56:59.208Z,64.52
2018-08-12T03:59:27.965Z,64.71
2018-08-12T04:01:57.042Z,65.11
2018-08-12T04:04:25.891Z,65.19
2018-08-12T04:06:54.896Z,65.45
2018-08-12T04:09:23.676Z,65.56
2018-08-12T04:11:52.402Z,65.87
2018-08-12T04:14:21.117Z,65.67
2018-08-12T04:16:57.884Z,65.56
2018-08-12T04:19:26.928Z,65.86
2018-08-12T04:21:55.977Z,65.91
2018-08-12T04:24:25.497Z,65.46
2018-08-12T04:26:54.255Z,64.93
2018-08-12T04:29:23.157Z,64.72
2018-08-12T04:31:51.948Z,64.40
2018-08-12T04:34:21.074Z,64.56
2018-08-12T04:36:49.834Z,64.35
2018-08-12T04:39:18.505Z,64.58
2018-08-12T04:41:47.313Z,64.10
2018-08-12T04:44:16.045Z,63.67
2018-08-12T04:46:45.122Z,63.53
2018-08-12T04:49:13.896Z,63.39
2018-08-12T04:51:42.917Z,63.38
2018-08-12T04:54:11.838Z,63.45
2018-08-12T04:56:40.813Z,63.16
2018-08-12T04:59:09.645Z,63.40
2018-08-12T05:01:38.482Z,63.44
2018-08-12T05:04:07.751Z,64.06
2018-08-12T05:06:36.455Z,63.49
2018-08-12T05:09:08.793Z,63.67
2018-08-12T05:11:38.138Z,62.58
2018-08-12T05:14:07.133Z,62.04
2018-08-12T05:16:35.887Z,61.50
2018-08-12T05:19:05.026Z,61.00
2018-08-12T05:21:33.812Z,61.04
2018-08-12T05:24:02.875Z,61.31
2018-08-12T05:26:31.692Z,61.39
2018-08-12T05:29:00.450Z,61.24
2018-08-12T05:31:29.471Z,61.69
2018-08-12T05:33:58.544Z,61.68
2018-08-12T05:36:27.349Z,61.72
2018-08-12T05:38:56.159Z,61.46
2018-08-12T05:41:24.856Z,61.74
2018-08-12T05:43:53.735Z,60.78
2018-08-12T05:46:22.610Z,59.81
2018-08-12T05:48:51.334Z,59.44
2018-08-12T05:51:20.277Z,58.54
2018-08-12T05:53:51.865Z,58.98
2018-08-12T05:56:20.813Z,59.54
2018-08-12T05:58:49.585Z,58.67
2018-08-12T06:01:18.380Z,57.92
2018-08-12T06:03:47.191Z,57.68
2018-08-12T06:06:15.961Z,57.20
2018-08-12T06:08:44.679Z,56.99
2018-08-12T06:11:13.496Z,57.02
2018-08-12T06:13:42.380Z,56.60
2018-08-12T06:16:11.454Z,56.16
2018-08-12T06:18:40.319Z,57.19
2018-08-12T06:21:09.446Z,56.42
2018-08-12T06:23:38.135Z,56.01
2018-08-12T06:26:07.416Z,55.42
2018-08-12T06:28:36.107Z,54.46
2018-08-12T06:31:04.992Z,54.78
2018-08-12T06:33:34.011Z,54.76
2018-08-12T06:36:02.904Z,54.05
2018-08-12T06:38:31.707Z,54.29
2018-08-12T06:41:00.402Z,53.97
2018-08-12T06:43:29.297Z,53.66
2018-08-12T06:45:58.464Z,53.19
2018-08-12T06:48:27.277Z,52.86
2018-08-12T06:50:56.166Z,52.60
2018-08-12T06:53:24.981Z,51.43
2018-08-12T06:55:53.830Z,50.92
2018-08-12T06:58:22.901Z,51.21
2018-08-12T07:00:51.638Z,50.40
2018-08-12T07:03:21.078Z,50.42
2018-08-12T07:05:50.152Z,49.84
2018-08-12T07:08:18.834Z,49.57
2018-08-12T07:10:47.739Z,49.54
2018-08-12T07:13:16.480Z,49.38
2018-08-12T07:15:45.187Z,48.91
2018-08-12T07:18:14.081Z,49.12
2018-08-12T07:20:42.871Z,47.74
2018-08-12T07:23:11.607Z,48.61
2018-08-12T07:25:40.510Z,48.34
2018-08-12T07:28:09.307Z,48.09
2018-08-12T07:30:38.115Z,47.13
2018-08-12T07:33:06.832Z,46.88
2018-08-12T07:35:35.567Z,46.73
2018-08-12T07:38:04.560Z,46.95
2018-08-12T07:40:33.500Z,45.76
2018-08-12T07:43:02.221Z,44.97
2018-08-12T07:45:31.075Z,45.05
2018-08-12T07:47:59.824Z,45.86
2018-08-12T07:50:28.501Z,44.66
2018-08-12T07:52:57.306Z,44.04
2018-08-12T07:55:26.201Z,43.98
2018-08-12T07:57:55.091Z,42.86
2018-08-12T08:00:24.107Z,43.07
2018-08-12T08:02:52.841Z,42.71
2018-08-12T08:05:21.681Z,42.57
2018-08-12T08:07:50.560Z,42.72
2018-08-12T08:10:19.835Z,42.41
2018-08-12T08:12:48.544Z,43.25
2018-08-12T08:15:19.097Z,41.48
2018-08-12T08:17:48.218Z,41.00
2018-08-12T08:20:17.321Z,40.30
2018-08-12T08:22:46.659Z,40.77
2018-08-12T08:25:15.705Z,40.98
2018-08-12T08:27:44.417Z,40.25
2018-08-12T08:30:14.927Z,39.86
2018-08-12T08:32:44.213Z,40.32
2018-08-12T08:35:14.190Z,38.85
2018-08-12T08:37:43.718Z,38.66
2018-08-12T08:40:15.487Z,39.09
2018-08-12T08:42:44.437Z,38.24
2018-08-12T08:45:16.792Z,38.33
2018-08-12T08:47:46.821Z,38.53
2018-08-12T08:50:16.830Z,38.51
2018-08-12T08:52:45.831Z,37.93
2018-08-12T08:55:15.474Z,37.63
2018-08-12T08:57:44.878Z,36.77
2018-08-12T09:00:15.833Z,38.43
2018-08-12T09:02:47.550Z,36.66
2018-08-12T09:05:17.745Z,36.39
2018-08-12T09:07:47.508Z,36.47
2018-08-12T09:10:17.633Z,36.36
2018-08-12T09:12:46.436Z,37.16
2018-08-12T09:15:17.247Z,36.28
2018-08-12T09:17:46.961Z,35.99
2018-08-12T09:20:17.154Z,35.61
2018-08-12T09:22:46.021Z,35.82
2018-08-12T09:25:15.506Z,34.97
2018-08-12T09:27:44.377Z,34.96
2018-08-12T09:30:16.616Z,34.72
2018-08-12T09:32:46.297Z,34.45
2018-08-12T09:35:15.137Z,34.26
2018-08-12T09:37:44.561Z,34.20
2018-08-12T09:40:15.599Z,33.35
2018-08-12T09:42:45.806Z,33.57
2018-08-12T09:45:17.576Z,32.57
2018-08-12T09:47:46.906Z,32.98
2018-08-12T09:50:17.090Z,32.55
2018-08-12T09:52:46.501Z,33.23
2018-08-12T09:55:16.118Z,33.79
2018-08-12T09:57:44.876Z,33.87
2018-08-12T10:00:22.139Z,33.31
2018-08-12T10:02:52.569Z,33.58
2018-08-12T10:05:21.715Z,33.88
2018-08-12T10:07:50.481Z,34.28
2018-08-12T10:10:19.947Z,33.65
2018-08-12T10:12:49.111Z,34.00
2018-08-12T10:15:18.287Z,33.64
2018-08-12T10:17:50.369Z,33.49
2018-08-12T10:20:19.165Z,33.76
2018-08-12T10:22:48.043Z,33.28
2018-08-12T10:25:17.143Z,33.11
2018-08-12T10:27:46.630Z,34.61
2018-08-12T10:30:16.801Z,33.90
2018-08-12T10:32:45.950Z,33.49
2018-08-12T10:35:17.930Z,33.42
2018-08-12T10:37:46.925Z,33.01
2018-08-12T10:40:18.081Z,33.18
2018-08-12T10:42:47.865Z,32.52
2018-08-12T10:45:17.184Z,32.54
2018-08-12T10:47:46.804Z,32.24
2018-08-12T10:50:18.654Z,32.45
2018-08-12T10:52:48.385Z,32.23
2018-08-12T10:55:19.091Z,32.36
2018-08-12T10:57:48.814Z,32.42
2018-08-12T11:00:22.501Z,32.40
2018-08-12T11:02:51.662Z,31.37
2018-08-12T11:05:20.561Z,32.24
2018-08-12T11:07:54.057Z,31.31
2018-08-12T11:10:23.158Z,33.29
2018-08-12T11:12:52.154Z,32.03
2018-08-12T11:15:20.976Z,30.37
2018-08-12T11:17:49.642Z,30.94
2018-08-12T11:20:18.594Z,31.03
2018-08-12T11:22:47.413Z,30.08
2018-08-12T11:25:16.716Z,30.60
2018-08-12T11:27:45.649Z,31.20
2018-08-12T11:30:16.492Z,30.97
2018-08-12T11:32:45.734Z,32.04
2018-08-12T11:35:16.435Z,31.76
2018-08-12T11:37:46.137Z,29.72
2018-08-12T11:40:15.886Z,29.21
2018-08-12T11:42:44.658Z,29.12
2018-08-12T11:45:15.720Z,28.81
2018-08-12T11:47:45.590Z,27.67
2018-08-12T11:50:15.166Z,27.39
2018-08-12T11:52:45.009Z,28.57
2018-08-12T11:55:17.664Z,27.55
2018-08-12T11:57:46.805Z,27.09
2018-08-12T12:00:17.855Z,28.59
2018-08-12T12:02:48.365Z,27.00
2018-08-12T12:05:17.560Z,26.13
2018-08-12T12:07:46.501Z,25.74
2018-08-12T12:10:19.726Z,26.09
2018-08-12T12:12:49.533Z,25.03
2018-08-12T12:15:18.374Z,23.38
2018-08-12T12:17:48.056Z,23.52
2018-08-12T12:20:17.841Z,22.90
2018-08-12T12:22:47.371Z,22.67
2018-08-12T12:25:17.946Z,23.78
2018-08-12T12:27:47.106Z,21.54
2018-08-12T12:30:17.634Z,21.19
2018-08-12T12:32:47.241Z,20.21
2018-08-12T12:35:16.874Z,20.61
2018-08-12T12:37:45.963Z,20.26
2018-08-12T12:40:16.483Z,19.34
2018-08-12T12:42:45.994Z,18.10
2018-08-12T12:45:15.556Z,17.85
2018-08-12T12:47:44.701Z,17.80
2018-08-12T12:50:18.161Z,18.15
2018-08-12T12:52:49.415Z,19.54
2018-08-12T12:55:19.252Z,19.93
2018-08-12T12:57:48.305Z,18.48
2018-08-12T13:00:18.573Z,18.98
2018-08-12T13:02:47.647Z,17.52
2018-08-12T13:05:18.012Z,18.71
2018-08-12T13:07:47.890Z,17.66
2018-08-12T13:10:17.683Z,17.43
2018-08-12T13:12:46.609Z,18.18
2018-08-12T13:15:16.388Z,15.98
2018-08-12T13:17:45.749Z,15.97
2018-08-12T13:20:17.038Z,15.61
2018-08-12T13:22:46.996Z,16.22
2018-08-12T13:25:17.597Z,16.06
2018-08-12T13:27:46.730Z,16.29
2018-08-12T13:30:16.847Z,15.79
2018-08-12T13:32:46.639Z,16.15
2018-08-12T13:35:15.401Z,16.75
2018-08-12T13:37:44.330Z,17.42
2018-08-12T13:40:14.814Z,17.06
2018-08-12T13:42:44.453Z,17.34
2018-08-12T13:45:14.125Z,16.56
2018-08-12T13:47:44.273Z,16.05
2018-08-12T13:50:19.471Z,17.50
2018-08-12T13:52:49.472Z,15.34
2018-08-12T13:55:18.990Z,15.02
2018-08-12T13:57:49.116Z,15.02
2018-08-12T14:00:20.787Z,15.49
2018-08-12T14:02:49.734Z,15.79
2018-08-12T14:05:19.516Z,15.29
2018-08-12T14:07:49.055Z,16.11
2018-08-12T14:10:19.099Z,20.00
2018-08-12T14:12:47.881Z,18.45
2018-08-12T14:15:18.990Z,19.50
2018-08-12T14:17:48.826Z,20.27
2018-08-12T14:20:18.824Z,20.39
2018-08-12T14:22:47.498Z,21.58
2018-08-12T14:25:16.264Z,21.73
2018-08-12T14:27:45.481Z,21.31
2018-08-12T14:30:17.389Z,22.69
2018-08-12T14:32:47.053Z,22.57
2018-08-12T14:35:16.139Z,22.83
2018-08-12T14:37:45.439Z,23.32
2018-08-12T14:40:15.253Z,23.39
2018-08-12T14:42:44.641Z,23.75
2018-08-12T14:45:14.600Z,23.88
2018-08-12T14:47:43.692Z,23.56
2018-08-12T14:50:14.438Z,23.17
2018-08-12T14:52:43.629Z,23.89
2018-08-12T14:55:14.588Z,24.07
2018-08-12T14:57:43.947Z,23.56
2018-08-12T15:00:17.780Z,23.31
2018-08-12T15:02:48.690Z,23.12
2018-08-12T15:05:18.401Z,24.22
2018-08-12T15:07:47.137Z,23.59
2018-08-12T15:10:16.066Z,23.40
2018-08-12T15:12:45.076Z,23.31
2018-08-12T15:15:15.262Z,23.30
2018-08-12T15:17:44.889Z,23.37
2018-08-12T15:20:14.976Z,23.80
2018-08-12T15:22:43.874Z,24.12
2018-08-12T15:25:15.807Z,23.56
2018-08-12T15:27:45.063Z,24.02
2018-08-12T15:30:13.878Z,23.88
2018-08-12T15:32:42.574Z,23.46
2018-08-12T15:35:11.662Z,23.38
2018-08-12T15:37:40.537Z,23.46
2018-08-12T15:40:11.328Z,23.48
2018-08-12T15:42:40.749Z,23.27
2018-08-12T15:45:11.737Z,23.44
2018-08-12T15:47:41.219Z,24.85
2018-08-12T15:50:11.088Z,23.98
2018-08-12T15:52:41.285Z,23.87
2018-08-12T15:55:10.679Z,23.57
2018-08-12T15:57:39.654Z,24.22
2018-08-12T16:00:18.559Z,24.47
2018-08-12T16:02:47.479Z,23.91
2018-08-12T16:05:16.818Z,23.84
2018-08-12T16:07:47.574Z,23.80
2018-08-12T16:10:19.252Z,24.98
2018-08-12T16:12:49.507Z,24.74
2018-08-12T16:15:18.529Z,23.91
2018-08-12T16:17:47.518Z,24.10
2018-08-12T16:20:16.336Z,23.95
2018-08-12T16:22:45.400Z,24.45
2018-08-12T16:25:17.622Z,24.36
2018-08-12T16:27:46.547Z,23.88
2018-08-12T16:30:17.321Z,24.16
2018-08-12T16:32:46.144Z,23.79
2018-08-12T16:35:16.358Z,25.65
2018-08-12T16:37:45.913Z,23.99
2018-08-12T16:40:17.507Z,23.71
2018-08-12T16:42:46.849Z,24.92
2018-08-12T16:45:16.397Z,23.94
2018-08-12T16:47:45.696Z,24.45
2018-08-12T16:50:14.664Z,24.65
2018-08-12T16:52:43.985Z,24.42
2018-08-12T16:55:15.918Z,24.35
2018-08-12T16:57:45.717Z,24.54
2018-08-12T17:00:19.187Z,24.90
2018-08-12T17:02:48.252Z,24.70
2018-08-12T17:05:18.381Z,24.62
2018-08-12T17:07:47.262Z,23.82
2018-08-12T17:10:17.281Z,23.92
2018-08-12T17:12:46.183Z,24.20
2018-08-12T17:15:18.056Z,24.22
2018-08-12T17:17:47.454Z,23.96
2018-08-12T17:20:17.733Z,23.74
2018-08-12T17:22:46.955Z,23.82
2018-08-12T17:25:15.686Z,23.64
2018-08-12T17:27:44.572Z,23.50
2018-08-12T17:30:14.993Z,23.57
2018-08-12T17:32:44.175Z,23.62
2018-08-12T17:35:13.265Z,23.87
2018-08-12T17:37:44.169Z,23.76
2018-08-12T17:40:14.273Z,23.83
2018-08-12T17:42:43.157Z,23.84
2018-08-12T17:45:13.555Z,23.93
2018-08-12T17:47:43.123Z,24.50
2018-08-12T17:50:13.730Z,24.40
2018-08-12T17:52:42.609Z,24.82
2018-08-12T17:55:11.635Z,24.61
2018-08-12T17:57:40.386Z,25.07
2018-08-12T18:00:12.195Z,25.36
2018-08-12T18:02:41.260Z,24.81
2018-08-12T18:05:10.395Z,25.12
2018-08-12T18:07:39.994Z,25.25
2018-08-12T18:10:08.869Z,25.24
2018-08-12T18:12:37.977Z,25.51
2018-08-12T18:15:07.938Z,25.53
2018-08-12T18:17:36.771Z,25.67
2018-08-12T18:20:05.925Z,25.81
2018-08-12T18:22:35.251Z,26.49
2018-08-12T18:25:04.873Z,27.13
2018-08-12T18:27:33.902Z,28.16
2018-08-12T18:30:02.785Z,28.77
2018-08-12T18:32:31.548Z,29.07
2018-08-12T18:35:00.746Z,29.58
2018-08-12T18:37:29.454Z,30.00
2018-08-12T18:39:59.862Z,30.50
2018-08-12T18:42:28.682Z,30.76
2018-08-12T18:44:57.663Z,31.20
2018-08-12T18:47:26.504Z,31.89
2018-08-12T18:49:55.358Z,32.01
2018-08-12T18:52:24.205Z,33.61
2018-08-12T18:54:53.481Z,32.70
2018-08-12T18:57:22.251Z,32.61
2018-08-12T18:59:51.041Z,33.26
2018-08-12T19:02:19.879Z,33.23
2018-08-12T19:04:48.627Z,33.50
2018-08-12T19:07:17.373Z,33.66
2018-08-12T19:09:46.241Z,34.45
2018-08-12T19:12:15.137Z,34.81
2018-08-12T19:14:44.302Z,35.21
2018-08-12T19:17:13.080Z,35.37
2018-08-12T19:19:41.966Z,35.63
2018-08-12T19:22:10.750Z,35.69
2018-08-12T19:24:39.629Z,35.93
2018-08-12T19:27:08.492Z,35.86
2018-08-12T19:29:37.499Z,36.22
2018-08-12T19:32:06.491Z,36.46
2018-08-12T19:34:35.418Z,36.51
2018-08-12T19:37:04.489Z,36.85
2018-08-12T19:39:33.486Z,36.93
2018-08-12T19:42:02.378Z,37.55
2018-08-12T19:44:31.192Z,38.07
2018-08-12T19:47:00.185Z,38.38
2018-08-12T19:49:28.951Z,38.82
2018-08-12T19:51:57.747Z,39.10
2018-08-12T19:54:27.158Z,39.73
2018-08-12T19:56:55.873Z,40.77
2018-08-12T19:59:24.728Z,40.91
2018-08-12T20:01:53.648Z,40.91
2018-08-12T20:04:22.546Z,41.16
2018-08-12T20:06:51.521Z,41.11
2018-08-12T20:09:20.262Z,41.20
2018-08-12T20:11:49.070Z,41.21
2018-08-12T20:14:17.902Z,41.06
2018-08-12T20:16:46.617Z,41.52
2018-08-12T20:19:15.683Z,41.52
2018-08-12T20:21:44.403Z,41.68
2018-08-12T20:24:13.062Z,41.20
2018-08-12T20:26:41.865Z,41.44
2018-08-12T20:29:10.550Z,41.56
2018-08-12T20:31:39.404Z,41.77
2018-08-12T20:34:08.181Z,41.61
2018-08-12T20:36:36.946Z,41.99
2018-08-12T20:39:09.975Z,42.77
2018-08-12T20:41:38.927Z,43.95
2018-08-12T20:44:07.801Z,43.62
2018-08-12T20:46:36.718Z,43.10
2018-08-12T20:49:05.529Z,42.94
2018-08-12T20:51:34.368Z,43.12
2018-08-12T20:54:03.261Z,43.13
2018-08-12T20:56:32.212Z,42.57
2018-08-12T20:59:00.887Z,42.64
2018-08-12T21:01:29.716Z,42.31
2018-08-12T21:03:58.761Z,42.49
2018-08-12T21:06:27.568Z,43.71
2018-08-12T21:08:56.335Z,43.63
2018-08-12T21:11:25.046Z,43.76
2018-08-12T21:13:53.892Z,45.08
2018-08-12T21:16:22.985Z,45.25
2018-08-12T21:18:51.706Z,46.77
2018-08-12T21:21:20.786Z,45.85
2018-08-12T21:23:49.613Z,45.52
2018-08-12T21:26:18.410Z,45.75
2018-08-12T21:28:47.193Z,46.79
2018-08-12T21:31:15.997Z,46.70
2018-08-12T21:33:44.887Z,46.50
2018-08-12T21:36:13.862Z,45.77
2018-08-12T21:38:42.641Z,45.99
2018-08-12T21:41:11.911Z,46.99
2018-08-12T21:43:40.706Z,46.37
2018-08-12T21:46:11.421Z,47.03
2018-08-12T21:48:40.686Z,46.70
2018-08-12T21:51:09.727Z,45.72
2018-08-12T21:53:38.549Z,45.53
2018-08-12T21:56:07.411Z,45.44
2018-08-12T21:58:36.242Z,45.15
2018-08-12T22:01:05.050Z,45.10
2018-08-12T22:03:33.947Z,44.88
2018-08-12T22:06:02.683Z,45.27
2018-08-12T22:08:31.337Z,45.89
2018-08-12T22:11:00.429Z,46.09
2018-08-12T22:13:29.257Z,47.56
2018-08-12T22:15:58.153Z,47.41
2018-08-12T22:18:26.925Z,47.67
2018-08-12T22:20:55.802Z,47.33
2018-08-12T22:23:24.755Z,47.32
2018-08-12T22:25:53.517Z,47.35
2018-08-12T22:28:22.289Z,47.92
2018-08-12T22:30:51.306Z,48.19
2018-08-12T22:33:20.076Z,48.52
2018-08-12T22:35:48.849Z,48.79
2018-08-12T22:38:17.801Z,48.73
2018-08-12T22:40:46.583Z,49.06
2018-08-12T22:43:15.396Z,48.76
2018-08-12T22:45:44.201Z,49.22
2018-08-12T22:48:13.039Z,49.50
2018-08-12T22:50:41.938Z,49.63
2018-08-12T22:53:10.732Z,49.52
2018-08-12T22:55:39.512Z,49.42
2018-08-12T22:58:08.311Z,49.34
2018-08-12T23:00:37.597Z,49.56
2018-08-12T23:03:07.653Z,47.71
2018-08-12T23:05:36.425Z,47.57
2018-08-12T23:08:09.213Z,47.87
2018-08-12T23:10:38.858Z,49.10
2018-08-12T23:13:08.218Z,49.05
2018-08-12T23:16:17.705Z,49.46
2018-08-12T23:18:46.569Z,49.58
2018-08-12T23:21:16.673Z,49.26
2018-08-12T23:23:49.901Z,48.83
2018-08-12T23:26:22.053Z,49.72
2018-08-12T23:28:51.174Z,49.76
2018-08-12T23:31:20.048Z,49.33
2018-08-12T23:33:48.713Z,50.21
2018-08-12T23:36:17.573Z,48.69
2018-08-12T23:38:46.242Z,49.50
2018-08-12T23:41:15.009Z,48.57
2018-08-12T23:43:43.725Z,48.67
2018-08-12T23:46:12.829Z,48.45
2018-08-12T23:48:41.676Z,47.95
2018-08-12T23:51:10.433Z,47.90
2018-08-12T23:53:39.606Z,47.29
2018-08-12T23:56:08.427Z,47.88
2018-08-12T23:58:37.293Z,47.99
